sensor_id;sensor_type;location;lat;lon;timestamp;P1;durP1;ratioP1;P2;durP2;ratioP2
809;SDS011;387;48.772;9.186;2024-03-17T00:02:21;15.63;;;7.80;;
809;SDS011;387;48.772;9.186;2024-03-17T00:04:47;14.83;;;7.80;;
809;SDS011;387;48.772;9.186;2024-03-17T00:07:12;16.07;;;8.10;;
809;SDS011;387;48.772;9.186;2024-03-17T00:09:39;16.80;;;7.80;;
809;SDS011;387;48.772;9.186;2024-03-17T00:12:05;15.57;;;8.03;;
809;SDS011;387;48.772;9.186;2024-03-17T00:14:31;20.97;;;9.30;;
809;SDS011;387;48.772;9.186;2024-03-17T00:16:56;15.27;;;7.53;;
809;SDS011;387;48.772;9.186;2024-03-17T00:19:25;16.10;;;7.57;;
809;SDS011;387;48.772;9.186;2024-03-17T00:21:51;11.27;;;6.43;;
809;SDS011;387;48.772;9.186;2024-03-17T00:24:17;14.53;;;6.40;;
809;SDS011;387;48.772;9.186;2024-03-17T00:26:43;14.60;;;6.00;;
809;SDS011;387;48.772;9.186;2024-03-17T00:29:09;12.07;;;5.73;;
809;SDS011;387;48.772;9.186;2024-03-17T00:31:35;12.67;;;6.77;;
809;SDS011;387;48.772;9.186;2024-03-17T00:34:02;11.00;;;6.10;;
809;SDS011;387;48.772;9.186;2024-03-17T00:36:27;11.87;;;6.30;;
809;SDS011;387;48.772;9.186;2024-03-17T00:38:53;11.50;;;6.13;;
809;SDS011;387;48.772;9.186;2024-03-17T00:41:18;11.50;;;6.30;;
809;SDS011;387;48.772;9.186;2024-03-17T00:43:44;11.10;;;6.70;;
809;SDS011;387;48.772;9.186;2024-03-17T00:46:10;14.03;;;8.17;;
809;SDS011;387;48.772;9.186;2024-03-17T00:48:37;15.33;;;7.10;;
809;SDS011;387;48.772;9.186;2024-03-17T00:51:02;12.33;;;6.60;;
809;SDS011;387;48.772;9.186;2024-03-17T00:53:28;16.47;;;7.77;;
809;SDS011;387;48.772;9.186;2024-03-17T00:55:54;12.33;;;6.97;;
809;SDS011;387;48.772;9.186;2024-03-17T00:58:23;14.33;;;7.00;;
809;SDS011;387;48.772;9.186;2024-03-17T01:00:49;13.07;;;7.27;;
809;SDS011;387;48.772;9.186;2024-03-17T01:03:15;12.80;;;7.00;;
809;SDS011;387;48.772;9.186;2024-03-17T01:05:41;10.63;;;6.07;;
809;SDS011;387;48.772;9.186;2024-03-17T01:08:09;11.33;;;6.17;;
809;SDS011;387;48.772;9.186;2024-03-17T01:10:39;12.73;;;7.33;;
809;SDS011;387;48.772;9.186;2024-03-17T01:13:08;12.50;;;7.33;;
809;SDS011;387;48.772;9.186;2024-03-17T01:15:38;12.07;;;6.90;;
809;SDS011;387;48.772;9.186;2024-03-17T01:18:04;9.90;;;6.30;;
809;SDS011;387;48.772;9.186;2024-03-17T01:20:31;13.93;;;6.90;;
809;SDS011;387;48.772;9.186;2024-03-17T01:22:57;13.07;;;6.73;;
809;SDS011;387;48.772;9.186;2024-03-17T01:25:22;14.33;;;7.07;;
809;SDS011;387;48.772;9.186;2024-03-17T01:27:50;12.43;;;6.43;;
809;SDS011;387;48.772;9.186;2024-03-17T01:30:16;16.60;;;8.07;;
809;SDS011;387;48.772;9.186;2024-03-17T01:32:43;13.83;;;7.23;;
809;SDS011;387;48.772;9.186;2024-03-17T01:35:09;14.30;;;7.70;;
809;SDS011;387;48.772;9.186;2024-03-17T01:37:34;15.50;;;8.00;;
809;SDS011;387;48.772;9.186;2024-03-17T01:40:00;15.40;;;8.13;;
809;SDS011;387;48.772;9.186;2024-03-17T01:42:26;17.80;;;7.70;;
809;SDS011;387;48.772;9.186;2024-03-17T01:44:51;16.67;;;8.33;;
809;SDS011;387;48.772;9.186;2024-03-17T01:47:17;14.10;;;8.00;;
809;SDS011;387;48.772;9.186;2024-03-17T01:49:49;18.00;;;7.90;;
809;SDS011;387;48.772;9.186;2024-03-17T01:52:16;13.33;;;7.50;;
809;SDS011;387;48.772;9.186;2024-03-17T01:54:43;18.63;;;9.03;;
809;SDS011;387;48.772;9.186;2024-03-17T01:57:10;18.23;;;9.47;;
809;SDS011;387;48.772;9.186;2024-03-17T01:59:36;20.63;;;9.73;;
809;SDS011;387;48.772;9.186;2024-03-17T02:02:02;19.60;;;9.30;;
809;SDS011;387;48.772;9.186;2024-03-17T02:04:29;16.37;;;8.90;;
809;SDS011;387;48.772;9.186;2024-03-17T02:06:55;15.60;;;8.60;;
809;SDS011;387;48.772;9.186;2024-03-17T02:09:20;20.03;;;8.07;;
809;SDS011;387;48.772;9.186;2024-03-17T02:11:47;24.93;;;9.37;;
809;SDS011;387;48.772;9.186;2024-03-17T02:14:13;15.97;;;8.93;;
809;SDS011;387;48.772;9.186;2024-03-17T02:16:39;18.27;;;9.03;;
809;SDS011;387;48.772;9.186;2024-03-17T02:19:06;16.43;;;8.20;;
809;SDS011;387;48.772;9.186;2024-03-17T02:21:31;16.00;;;8.67;;
809;SDS011;387;48.772;9.186;2024-03-17T02:23:57;15.43;;;8.23;;
809;SDS011;387;48.772;9.186;2024-03-17T02:26:25;13.47;;;7.43;;
809;SDS011;387;48.772;9.186;2024-03-17T02:28:51;19.37;;;8.43;;
809;SDS011;387;48.772;9.186;2024-03-17T02:31:16;16.60;;;9.53;;
809;SDS011;387;48.772;9.186;2024-03-17T02:33:43;18.20;;;9.10;;
809;SDS011;387;48.772;9.186;2024-03-17T02:36:10;17.33;;;8.37;;
809;SDS011;387;48.772;9.186;2024-03-17T02:38:37;14.10;;;8.80;;
809;SDS011;387;48.772;9.186;2024-03-17T02:41:21;14.23;;;7.53;;
809;SDS011;387;48.772;9.186;2024-03-17T02:43:47;14.97;;;7.97;;
809;SDS011;387;48.772;9.186;2024-03-17T02:46:14;18.43;;;9.40;;
809;SDS011;387;48.772;9.186;2024-03-17T02:48:40;17.90;;;8.73;;
809;SDS011;387;48.772;9.186;2024-03-17T02:51:12;18.57;;;9.70;;
809;SDS011;387;48.772;9.186;2024-03-17T02:53:42;20.50;;;10.70;;
809;SDS011;387;48.772;9.186;2024-03-17T02:56:10;21.83;;;11.40;;
809;SDS011;387;48.772;9.186;2024-03-17T02:58:36;22.50;;;11.73;;
809;SDS011;387;48.772;9.186;2024-03-17T03:01:03;15.07;;;8.60;;
809;SDS011;387;48.772;9.186;2024-03-17T03:03:30;19.63;;;9.07;;
809;SDS011;387;48.772;9.186;2024-03-17T03:05:56;25.50;;;11.30;;
809;SDS011;387;48.772;9.186;2024-03-17T03:08:23;18.77;;;10.53;;
809;SDS011;387;48.772;9.186;2024-03-17T03:10:49;23.73;;;12.17;;
809;SDS011;387;48.772;9.186;2024-03-17T03:13:15;15.70;;;8.30;;
809;SDS011;387;48.772;9.186;2024-03-17T03:15:41;15.07;;;8.40;;
809;SDS011;387;48.772;9.186;2024-03-17T03:18:07;15.30;;;7.90;;
809;SDS011;387;48.772;9.186;2024-03-17T03:20:34;18.10;;;10.53;;
809;SDS011;387;48.772;9.186;2024-03-17T03:23:00;17.60;;;9.53;;
809;SDS011;387;48.772;9.186;2024-03-17T03:25:27;19.20;;;9.37;;
809;SDS011;387;48.772;9.186;2024-03-17T03:27:53;20.10;;;9.30;;
809;SDS011;387;48.772;9.186;2024-03-17T03:30:21;16.60;;;10.60;;
809;SDS011;387;48.772;9.186;2024-03-17T03:32:48;19.83;;;10.33;;
809;SDS011;387;48.772;9.186;2024-03-17T03:35:13;22.10;;;10.57;;
809;SDS011;387;48.772;9.186;2024-03-17T03:37:39;19.27;;;10.03;;
809;SDS011;387;48.772;9.186;2024-03-17T03:40:06;19.10;;;9.40;;
809;SDS011;387;48.772;9.186;2024-03-17T03:42:42;22.23;;;12.00;;
809;SDS011;387;48.772;9.186;2024-03-17T03:45:10;19.17;;;9.43;;
809;SDS011;387;48.772;9.186;2024-03-17T03:47:39;18.50;;;9.63;;
809;SDS011;387;48.772;9.186;2024-03-17T03:50:08;19.07;;;10.47;;
809;SDS011;387;48.772;9.186;2024-03-17T03:52:35;19.77;;;11.37;;
809;SDS011;387;48.772;9.186;2024-03-17T03:55:01;23.87;;;11.33;;
809;SDS011;387;48.772;9.186;2024-03-17T03:57:29;25.80;;;10.73;;
809;SDS011;387;48.772;9.186;2024-03-17T03:59:55;17.67;;;10.30;;
809;SDS011;387;48.772;9.186;2024-03-17T04:02:21;23.80;;;12.40;;
809;SDS011;387;48.772;9.186;2024-03-17T04:04:48;20.50;;;10.27;;
809;SDS011;387;48.772;9.186;2024-03-17T04:07:13;20.33;;;10.30;;
809;SDS011;387;48.772;9.186;2024-03-17T04:09:39;22.00;;;11.13;;
809;SDS011;387;48.772;9.186;2024-03-17T04:12:04;26.70;;;11.80;;
809;SDS011;387;48.772;9.186;2024-03-17T04:14:32;17.90;;;11.20;;
809;SDS011;387;48.772;9.186;2024-03-17T04:16:57;15.50;;;9.30;;
809;SDS011;387;48.772;9.186;2024-03-17T04:19:23;18.57;;;9.57;;
809;SDS011;387;48.772;9.186;2024-03-17T04:21:49;22.87;;;10.50;;
809;SDS011;387;48.772;9.186;2024-03-17T04:24:16;20.83;;;11.43;;
809;SDS011;387;48.772;9.186;2024-03-17T04:26:42;18.93;;;9.80;;
809;SDS011;387;48.772;9.186;2024-03-17T04:29:08;22.83;;;10.90;;
809;SDS011;387;48.772;9.186;2024-03-17T04:31:34;20.73;;;10.17;;
809;SDS011;387;48.772;9.186;2024-03-17T04:33:59;23.63;;;11.40;;
809;SDS011;387;48.772;9.186;2024-03-17T04:36:25;20.50;;;11.17;;
809;SDS011;387;48.772;9.186;2024-03-17T04:38:51;17.30;;;9.70;;
809;SDS011;387;48.772;9.186;2024-03-17T04:41:19;23.27;;;10.87;;
809;SDS011;387;48.772;9.186;2024-03-17T04:43:44;18.10;;;10.00;;
809;SDS011;387;48.772;9.186;2024-03-17T04:46:11;20.97;;;10.40;;
809;SDS011;387;48.772;9.186;2024-03-17T04:48:38;25.20;;;12.43;;
809;SDS011;387;48.772;9.186;2024-03-17T04:51:04;23.67;;;12.17;;
809;SDS011;387;48.772;9.186;2024-03-17T04:53:30;30.93;;;11.40;;
809;SDS011;387;48.772;9.186;2024-03-17T04:56:03;22.37;;;11.47;;
809;SDS011;387;48.772;9.186;2024-03-17T04:58:33;22.40;;;10.50;;
809;SDS011;387;48.772;9.186;2024-03-17T05:01:03;19.57;;;9.77;;
809;SDS011;387;48.772;9.186;2024-03-17T05:03:33;16.50;;;9.27;;
809;SDS011;387;48.772;9.186;2024-03-17T05:06:00;18.20;;;9.87;;
809;SDS011;387;48.772;9.186;2024-03-17T05:08:29;20.93;;;9.90;;
809;SDS011;387;48.772;9.186;2024-03-17T05:10:58;18.97;;;10.83;;
809;SDS011;387;48.772;9.186;2024-03-17T05:13:25;22.27;;;11.00;;
809;SDS011;387;48.772;9.186;2024-03-17T05:15:52;22.80;;;11.33;;
809;SDS011;387;48.772;9.186;2024-03-17T05:18:18;21.07;;;11.00;;
809;SDS011;387;48.772;9.186;2024-03-17T05:20:45;23.70;;;12.87;;
809;SDS011;387;48.772;9.186;2024-03-17T05:23:12;25.17;;;13.00;;
809;SDS011;387;48.772;9.186;2024-03-17T05:25:38;27.17;;;11.00;;
809;SDS011;387;48.772;9.186;2024-03-17T05:28:04;15.17;;;7.57;;
809;SDS011;387;48.772;9.186;2024-03-17T05:30:30;13.37;;;7.73;;
809;SDS011;387;48.772;9.186;2024-03-17T05:32:56;20.33;;;9.33;;
809;SDS011;387;48.772;9.186;2024-03-17T05:35:21;19.57;;;10.43;;
809;SDS011;387;48.772;9.186;2024-03-17T05:37:48;23.50;;;12.53;;
809;SDS011;387;48.772;9.186;2024-03-17T05:40:14;27.50;;;12.50;;
809;SDS011;387;48.772;9.186;2024-03-17T05:42:43;25.07;;;12.90;;
809;SDS011;387;48.772;9.186;2024-03-17T05:45:09;27.17;;;14.17;;
809;SDS011;387;48.772;9.186;2024-03-17T05:47:38;30.80;;;16.10;;
809;SDS011;387;48.772;9.186;2024-03-17T05:50:06;31.63;;;14.03;;
809;SDS011;387;48.772;9.186;2024-03-17T05:52:31;29.50;;;14.73;;
809;SDS011;387;48.772;9.186;2024-03-17T05:54:57;24.30;;;12.80;;
809;SDS011;387;48.772;9.186;2024-03-17T05:57:23;23.40;;;12.90;;
809;SDS011;387;48.772;9.186;2024-03-17T05:59:49;30.70;;;13.53;;
809;SDS011;387;48.772;9.186;2024-03-17T06:02:15;26.53;;;13.87;;
809;SDS011;387;48.772;9.186;2024-03-17T06:04:41;29.83;;;14.60;;
809;SDS011;387;48.772;9.186;2024-03-17T06:07:06;27.80;;;13.30;;
809;SDS011;387;48.772;9.186;2024-03-17T06:09:32;19.73;;;11.20;;
809;SDS011;387;48.772;9.186;2024-03-17T06:11:59;17.13;;;9.30;;
809;SDS011;387;48.772;9.186;2024-03-17T06:14:25;12.97;;;8.70;;
809;SDS011;387;48.772;9.186;2024-03-17T06:16:52;14.57;;;8.50;;
809;SDS011;387;48.772;9.186;2024-03-17T06:19:18;18.20;;;8.60;;
809;SDS011;387;48.772;9.186;2024-03-17T06:21:43;19.43;;;10.40;;
809;SDS011;387;48.772;9.186;2024-03-17T06:24:09;18.67;;;10.77;;
809;SDS011;387;48.772;9.186;2024-03-17T06:26:34;16.90;;;9.40;;
809;SDS011;387;48.772;9.186;2024-03-17T06:29:00;16.30;;;9.17;;
809;SDS011;387;48.772;9.186;2024-03-17T06:31:26;17.60;;;10.10;;
809;SDS011;387;48.772;9.186;2024-03-17T06:33:51;20.63;;;11.00;;
809;SDS011;387;48.772;9.186;2024-03-17T06:36:17;18.03;;;10.03;;
809;SDS011;387;48.772;9.186;2024-03-17T06:38:43;23.53;;;10.17;;
809;SDS011;387;48.772;9.186;2024-03-17T06:41:11;17.67;;;9.73;;
809;SDS011;387;48.772;9.186;2024-03-17T06:43:40;17.93;;;9.90;;
809;SDS011;387;48.772;9.186;2024-03-17T06:46:08;20.30;;;11.33;;
809;SDS011;387;48.772;9.186;2024-03-17T06:48:33;18.97;;;9.93;;
809;SDS011;387;48.772;9.186;2024-03-17T06:50:59;19.60;;;10.30;;
809;SDS011;387;48.772;9.186;2024-03-17T06:53:24;20.70;;;10.53;;
809;SDS011;387;48.772;9.186;2024-03-17T06:55:56;19.20;;;11.03;;
809;SDS011;387;48.772;9.186;2024-03-17T06:58:24;20.50;;;11.27;;
809;SDS011;387;48.772;9.186;2024-03-17T07:00:55;18.07;;;9.77;;
809;SDS011;387;48.772;9.186;2024-03-17T07:03:25;17.47;;;11.20;;
809;SDS011;387;48.772;9.186;2024-03-17T07:05:55;18.10;;;9.40;;
809;SDS011;387;48.772;9.186;2024-03-17T07:08:22;20.70;;;11.30;;
809;SDS011;387;48.772;9.186;2024-03-17T07:10:59;22.40;;;10.57;;
809;SDS011;387;48.772;9.186;2024-03-17T07:13:28;20.30;;;11.13;;
809;SDS011;387;48.772;9.186;2024-03-17T07:16:01;18.87;;;10.70;;
809;SDS011;387;48.772;9.186;2024-03-17T07:18:33;21.07;;;11.33;;
809;SDS011;387;48.772;9.186;2024-03-17T07:21:01;30.53;;;13.80;;
809;SDS011;387;48.772;9.186;2024-03-17T07:23:29;27.80;;;14.47;;
809;SDS011;387;48.772;9.186;2024-03-17T07:25:57;24.77;;;13.73;;
809;SDS011;387;48.772;9.186;2024-03-17T07:28:24;26.40;;;13.83;;
809;SDS011;387;48.772;9.186;2024-03-17T07:30:50;29.50;;;16.73;;
809;SDS011;387;48.772;9.186;2024-03-17T07:33:17;28.57;;;15.70;;
809;SDS011;387;48.772;9.186;2024-03-17T07:35:54;30.30;;;16.30;;
809;SDS011;387;48.772;9.186;2024-03-17T07:38:30;24.23;;;14.20;;
809;SDS011;387;48.772;9.186;2024-03-17T07:41:07;25.13;;;14.10;;
809;SDS011;387;48.772;9.186;2024-03-17T07:43:34;25.10;;;13.90;;
809;SDS011;387;48.772;9.186;2024-03-17T07:46:01;24.80;;;13.77;;
809;SDS011;387;48.772;9.186;2024-03-17T07:48:37;22.00;;;12.17;;
809;SDS011;387;48.772;9.186;2024-03-17T07:51:04;26.80;;;14.40;;
809;SDS011;387;48.772;9.186;2024-03-17T07:53:34;24.20;;;14.60;;
809;SDS011;387;48.772;9.186;2024-03-17T07:56:01;24.70;;;12.83;;
809;SDS011;387;48.772;9.186;2024-03-17T07:58:31;21.40;;;12.93;;
809;SDS011;387;48.772;9.186;2024-03-17T08:01:01;24.93;;;13.33;;
809;SDS011;387;48.772;9.186;2024-03-17T08:03:28;23.60;;;13.50;;
809;SDS011;387;48.772;9.186;2024-03-17T08:05:56;26.90;;;12.70;;
809;SDS011;387;48.772;9.186;2024-03-17T08:08:22;26.23;;;15.03;;
809;SDS011;387;48.772;9.186;2024-03-17T08:10:48;22.37;;;13.47;;
809;SDS011;387;48.772;9.186;2024-03-17T08:13:14;26.83;;;15.23;;
809;SDS011;387;48.772;9.186;2024-03-17T08:15:41;24.47;;;15.20;;
809;SDS011;387;48.772;9.186;2024-03-17T08:18:08;24.73;;;13.37;;
809;SDS011;387;48.772;9.186;2024-03-17T08:20:37;27.50;;;16.07;;
809;SDS011;387;48.772;9.186;2024-03-17T08:23:04;22.07;;;12.43;;
809;SDS011;387;48.772;9.186;2024-03-17T08:25:30;20.17;;;12.60;;
809;SDS011;387;48.772;9.186;2024-03-17T08:27:59;24.70;;;14.93;;
809;SDS011;387;48.772;9.186;2024-03-17T08:30:25;26.57;;;15.37;;
809;SDS011;387;48.772;9.186;2024-03-17T08:32:51;21.67;;;13.10;;
809;SDS011;387;48.772;9.186;2024-03-17T08:35:17;22.83;;;13.93;;
809;SDS011;387;48.772;9.186;2024-03-17T08:37:42;19.87;;;12.90;;
809;SDS011;387;48.772;9.186;2024-03-17T08:40:10;21.60;;;12.87;;
809;SDS011;387;48.772;9.186;2024-03-17T08:42:36;19.43;;;12.70;;
809;SDS011;387;48.772;9.186;2024-03-17T08:45:01;19.33;;;10.97;;
809;SDS011;387;48.772;9.186;2024-03-17T08:47:28;22.43;;;12.47;;
809;SDS011;387;48.772;9.186;2024-03-17T08:49:53;19.77;;;12.53;;
809;SDS011;387;48.772;9.186;2024-03-17T08:52:19;17.80;;;12.10;;
809;SDS011;387;48.772;9.186;2024-03-17T08:54:48;18.90;;;12.80;;
809;SDS011;387;48.772;9.186;2024-03-17T08:57:16;20.77;;;13.10;;
809;SDS011;387;48.772;9.186;2024-03-17T08:59:42;19.10;;;10.87;;
809;SDS011;387;48.772;9.186;2024-03-17T09:02:11;17.97;;;11.03;;
809;SDS011;387;48.772;9.186;2024-03-17T09:04:41;19.03;;;11.60;;
809;SDS011;387;48.772;9.186;2024-03-17T09:07:07;20.83;;;11.20;;
809;SDS011;387;48.772;9.186;2024-03-17T09:09:33;28.37;;;14.43;;
809;SDS011;387;48.772;9.186;2024-03-17T09:11:59;19.27;;;11.70;;
809;SDS011;387;48.772;9.186;2024-03-17T09:14:24;17.77;;;12.03;;
809;SDS011;387;48.772;9.186;2024-03-17T09:16:50;19.17;;;12.27;;
809;SDS011;387;48.772;9.186;2024-03-17T09:19:16;17.77;;;10.87;;
809;SDS011;387;48.772;9.186;2024-03-17T09:21:42;18.40;;;11.30;;
809;SDS011;387;48.772;9.186;2024-03-17T09:24:08;24.03;;;11.00;;
809;SDS011;387;48.772;9.186;2024-03-17T09:26:34;16.77;;;10.63;;
809;SDS011;387;48.772;9.186;2024-03-17T09:29:01;15.80;;;10.37;;
809;SDS011;387;48.772;9.186;2024-03-17T09:31:27;13.73;;;9.50;;
809;SDS011;387;48.772;9.186;2024-03-17T09:33:52;17.63;;;10.30;;
809;SDS011;387;48.772;9.186;2024-03-17T09:36:18;15.90;;;9.90;;
809;SDS011;387;48.772;9.186;2024-03-17T09:38:44;14.30;;;8.50;;
809;SDS011;387;48.772;9.186;2024-03-17T09:41:18;13.37;;;8.50;;
809;SDS011;387;48.772;9.186;2024-03-17T09:43:50;13.70;;;8.10;;
809;SDS011;387;48.772;9.186;2024-03-17T09:46:18;14.20;;;9.20;;
809;SDS011;387;48.772;9.186;2024-03-17T09:48:44;14.90;;;8.90;;
809;SDS011;387;48.772;9.186;2024-03-17T09:51:15;9.53;;;5.97;;
809;SDS011;387;48.772;9.186;2024-03-17T09:53:44;12.73;;;6.50;;
809;SDS011;387;48.772;9.186;2024-03-17T09:56:14;13.57;;;7.90;;
809;SDS011;387;48.772;9.186;2024-03-17T09:58:41;11.77;;;7.10;;
809;SDS011;387;48.772;9.186;2024-03-17T10:01:07;9.57;;;6.13;;
809;SDS011;387;48.772;9.186;2024-03-17T10:06:08;8.03;;;5.13;;
809;SDS011;387;48.772;9.186;2024-03-17T10:08:40;9.40;;;6.30;;
809;SDS011;387;48.772;9.186;2024-03-17T10:11:06;7.50;;;4.87;;
809;SDS011;387;48.772;9.186;2024-03-17T10:13:31;9.40;;;5.70;;
809;SDS011;387;48.772;9.186;2024-03-17T10:15:57;9.23;;;5.50;;
809;SDS011;387;48.772;9.186;2024-03-17T10:18:23;11.53;;;6.47;;
809;SDS011;387;48.772;9.186;2024-03-17T10:20:49;8.97;;;3.53;;
809;SDS011;387;48.772;9.186;2024-03-17T10:23:21;6.53;;;4.67;;
809;SDS011;387;48.772;9.186;2024-03-17T10:25:47;5.63;;;3.97;;
809;SDS011;387;48.772;9.186;2024-03-17T10:28:14;8.67;;;4.37;;
809;SDS011;387;48.772;9.186;2024-03-17T10:30:41;6.93;;;4.03;;
809;SDS011;387;48.772;9.186;2024-03-17T10:33:22;7.27;;;4.63;;
809;SDS011;387;48.772;9.186;2024-03-17T10:35:50;5.40;;;3.90;;
809;SDS011;387;48.772;9.186;2024-03-17T10:38:22;7.63;;;4.10;;
809;SDS011;387;48.772;9.186;2024-03-17T10:40:48;7.97;;;4.13;;
809;SDS011;387;48.772;9.186;2024-03-17T10:43:14;6.97;;;4.47;;
809;SDS011;387;48.772;9.186;2024-03-17T10:45:41;6.90;;;4.20;;
809;SDS011;387;48.772;9.186;2024-03-17T10:48:08;7.87;;;4.47;;
809;SDS011;387;48.772;9.186;2024-03-17T10:50:37;8.27;;;5.50;;
809;SDS011;387;48.772;9.186;2024-03-17T10:53:05;9.33;;;4.60;;
809;SDS011;387;48.772;9.186;2024-03-17T10:55:39;9.73;;;4.90;;
809;SDS011;387;48.772;9.186;2024-03-17T10:58:19;7.27;;;4.77;;
809;SDS011;387;48.772;9.186;2024-03-17T11:00:52;9.40;;;5.00;;
809;SDS011;387;48.772;9.186;2024-03-17T11:03:18;15.23;;;6.10;;
809;SDS011;387;48.772;9.186;2024-03-17T11:05:44;12.30;;;6.00;;
809;SDS011;387;48.772;9.186;2024-03-17T11:08:14;9.70;;;5.80;;
809;SDS011;387;48.772;9.186;2024-03-17T11:10:48;6.60;;;4.50;;
809;SDS011;387;48.772;9.186;2024-03-17T11:15:51;10.00;;;5.00;;
809;SDS011;387;48.772;9.186;2024-03-17T11:23:40;7.17;;;4.50;;
809;SDS011;387;48.772;9.186;2024-03-17T11:26:06;6.93;;;4.63;;
809;SDS011;387;48.772;9.186;2024-03-17T11:34:00;6.97;;;4.40;;
809;SDS011;387;48.772;9.186;2024-03-17T11:46:57;10.30;;;5.27;;
809;SDS011;387;48.772;9.186;2024-03-17T11:49:25;6.87;;;4.43;;
809;SDS011;387;48.772;9.186;2024-03-17T11:51:55;7.57;;;5.40;;
809;SDS011;387;48.772;9.186;2024-03-17T11:54:23;8.40;;;4.53;;
809;SDS011;387;48.772;9.186;2024-03-17T11:56:53;8.83;;;5.03;;
809;SDS011;387;48.772;9.186;2024-03-17T11:59:20;7.07;;;4.93;;
809;SDS011;387;48.772;9.186;2024-03-17T12:01:49;6.77;;;5.20;;
809;SDS011;387;48.772;9.186;2024-03-17T12:04:15;7.30;;;4.40;;
809;SDS011;387;48.772;9.186;2024-03-17T12:06:53;9.43;;;5.10;;
809;SDS011;387;48.772;9.186;2024-03-17T12:09:30;9.17;;;5.47;;
809;SDS011;387;48.772;9.186;2024-03-17T12:12:04;7.43;;;5.20;;
809;SDS011;387;48.772;9.186;2024-03-17T12:14:34;8.83;;;5.50;;
809;SDS011;387;48.772;9.186;2024-03-17T12:17:04;9.10;;;5.50;;
809;SDS011;387;48.772;9.186;2024-03-17T12:19:32;7.37;;;5.27;;
809;SDS011;387;48.772;9.186;2024-03-17T12:21:59;10.53;;;5.67;;
809;SDS011;387;48.772;9.186;2024-03-17T12:24:26;8.77;;;5.50;;
809;SDS011;387;48.772;9.186;2024-03-17T12:26:54;9.27;;;5.50;;
809;SDS011;387;48.772;9.186;2024-03-17T12:29:30;9.43;;;5.60;;
809;SDS011;387;48.772;9.186;2024-03-17T12:32:04;9.07;;;5.20;;
809;SDS011;387;48.772;9.186;2024-03-17T12:34:51;7.43;;;4.67;;
809;SDS011;387;48.772;9.186;2024-03-17T12:37:20;7.07;;;4.83;;
809;SDS011;387;48.772;9.186;2024-03-17T12:39:47;11.40;;;5.77;;
809;SDS011;387;48.772;9.186;2024-03-17T12:42:14;7.17;;;4.90;;
809;SDS011;387;48.772;9.186;2024-03-17T12:44:55;8.57;;;5.17;;
809;SDS011;387;48.772;9.186;2024-03-17T12:47:21;10.50;;;6.10;;
809;SDS011;387;48.772;9.186;2024-03-17T12:49:48;7.20;;;4.63;;
809;SDS011;387;48.772;9.186;2024-03-17T12:52:20;5.50;;;4.77;;
809;SDS011;387;48.772;9.186;2024-03-17T12:57:44;9.10;;;5.23;;
809;SDS011;387;48.772;9.186;2024-03-17T13:00:28;8.00;;;5.40;;
809;SDS011;387;48.772;9.186;2024-03-17T13:02:57;9.10;;;5.67;;
809;SDS011;387;48.772;9.186;2024-03-17T13:05:23;7.77;;;5.20;;
809;SDS011;387;48.772;9.186;2024-03-17T13:07:49;12.23;;;5.23;;
809;SDS011;387;48.772;9.186;2024-03-17T13:10:16;9.03;;;5.87;;
809;SDS011;387;48.772;9.186;2024-03-17T13:12:43;5.97;;;4.27;;
809;SDS011;387;48.772;9.186;2024-03-17T13:15:11;11.37;;;6.27;;
809;SDS011;387;48.772;9.186;2024-03-17T13:17:38;9.30;;;5.37;;
809;SDS011;387;48.772;9.186;2024-03-17T13:20:04;11.83;;;6.90;;
809;SDS011;387;48.772;9.186;2024-03-17T13:22:34;12.50;;;7.27;;
809;SDS011;387;48.772;9.186;2024-03-17T13:25:00;8.17;;;5.27;;
809;SDS011;387;48.772;9.186;2024-03-17T13:27:26;9.63;;;5.27;;
809;SDS011;387;48.772;9.186;2024-03-17T13:29:51;7.23;;;5.00;;
809;SDS011;387;48.772;9.186;2024-03-17T13:32:19;10.80;;;6.33;;
809;SDS011;387;48.772;9.186;2024-03-17T13:34:44;8.07;;;5.40;;
809;SDS011;387;48.772;9.186;2024-03-17T13:37:10;7.80;;;4.30;;
809;SDS011;387;48.772;9.186;2024-03-17T13:39:36;7.40;;;4.20;;
809;SDS011;387;48.772;9.186;2024-03-17T13:42:02;7.70;;;5.00;;
809;SDS011;387;48.772;9.186;2024-03-17T13:44:31;6.77;;;4.90;;
809;SDS011;387;48.772;9.186;2024-03-17T13:46:57;6.00;;;3.80;;
809;SDS011;387;48.772;9.186;2024-03-17T13:49:23;6.87;;;4.63;;
809;SDS011;387;48.772;9.186;2024-03-17T13:51:50;6.80;;;4.07;;
809;SDS011;387;48.772;9.186;2024-03-17T13:54:15;8.33;;;4.47;;
809;SDS011;387;48.772;9.186;2024-03-17T13:56:41;7.17;;;4.47;;
809;SDS011;387;48.772;9.186;2024-03-17T13:59:06;7.57;;;4.90;;
809;SDS011;387;48.772;9.186;2024-03-17T14:01:32;7.40;;;3.70;;
809;SDS011;387;48.772;9.186;2024-03-17T14:03:58;6.53;;;4.70;;
809;SDS011;387;48.772;9.186;2024-03-17T14:06:24;8.63;;;3.67;;
809;SDS011;387;48.772;9.186;2024-03-17T14:08:49;7.90;;;4.27;;
809;SDS011;387;48.772;9.186;2024-03-17T14:11:15;8.30;;;4.30;;
809;SDS011;387;48.772;9.186;2024-03-17T14:13:40;6.87;;;4.27;;
809;SDS011;387;48.772;9.186;2024-03-17T14:16:06;6.90;;;4.23;;
809;SDS011;387;48.772;9.186;2024-03-17T14:18:31;8.30;;;4.27;;
809;SDS011;387;48.772;9.186;2024-03-17T14:21:00;8.47;;;4.50;;
809;SDS011;387;48.772;9.186;2024-03-17T14:23:26;7.33;;;4.00;;
809;SDS011;387;48.772;9.186;2024-03-17T14:25:54;8.27;;;4.87;;
809;SDS011;387;48.772;9.186;2024-03-17T14:28:20;6.53;;;3.90;;
809;SDS011;387;48.772;9.186;2024-03-17T14:30:47;11.07;;;4.70;;
809;SDS011;387;48.772;9.186;2024-03-17T14:33:12;5.37;;;3.90;;
809;SDS011;387;48.772;9.186;2024-03-17T14:35:38;9.00;;;4.03;;
809;SDS011;387;48.772;9.186;2024-03-17T14:38:06;5.37;;;3.80;;
809;SDS011;387;48.772;9.186;2024-03-17T14:40:34;6.10;;;3.70;;
809;SDS011;387;48.772;9.186;2024-03-17T14:43:00;7.40;;;3.63;;
809;SDS011;387;48.772;9.186;2024-03-17T14:45:28;10.30;;;4.03;;
809;SDS011;387;48.772;9.186;2024-03-17T14:47:53;8.20;;;3.40;;
809;SDS011;387;48.772;9.186;2024-03-17T14:50:19;4.93;;;3.80;;
809;SDS011;387;48.772;9.186;2024-03-17T14:52:44;7.30;;;3.80;;
809;SDS011;387;48.772;9.186;2024-03-17T14:55:10;4.93;;;3.60;;
809;SDS011;387;48.772;9.186;2024-03-17T14:57:39;6.00;;;3.67;;
809;SDS011;387;48.772;9.186;2024-03-17T15:00:06;7.80;;;3.93;;
809;SDS011;387;48.772;9.186;2024-03-17T15:02:41;6.30;;;3.60;;
809;SDS011;387;48.772;9.186;2024-03-17T15:05:13;7.80;;;4.40;;
809;SDS011;387;48.772;9.186;2024-03-17T15:07:39;5.00;;;3.80;;
809;SDS011;387;48.772;9.186;2024-03-17T15:10:06;5.90;;;3.57;;
809;SDS011;387;48.772;9.186;2024-03-17T15:12:32;6.23;;;4.07;;
809;SDS011;387;48.772;9.186;2024-03-17T15:14:58;5.63;;;3.30;;
809;SDS011;387;48.772;9.186;2024-03-17T15:17:23;4.00;;;2.97;;
809;SDS011;387;48.772;9.186;2024-03-17T15:19:50;6.80;;;3.53;;
809;SDS011;387;48.772;9.186;2024-03-17T15:22:15;6.77;;;4.37;;
809;SDS011;387;48.772;9.186;2024-03-17T15:24:41;6.00;;;3.53;;
809;SDS011;387;48.772;9.186;2024-03-17T15:27:07;6.50;;;4.07;;
809;SDS011;387;48.772;9.186;2024-03-17T15:29:35;7.67;;;4.67;;
809;SDS011;387;48.772;9.186;2024-03-17T15:32:00;8.07;;;4.20;;
809;SDS011;387;48.772;9.186;2024-03-17T15:34:26;5.73;;;4.33;;
809;SDS011;387;48.772;9.186;2024-03-17T15:36:56;7.07;;;4.40;;
809;SDS011;387;48.772;9.186;2024-03-17T15:39:22;6.90;;;4.43;;
809;SDS011;387;48.772;9.186;2024-03-17T15:41:48;6.13;;;4.50;;
809;SDS011;387;48.772;9.186;2024-03-17T15:44:14;7.83;;;4.20;;
809;SDS011;387;48.772;9.186;2024-03-17T15:46:40;8.30;;;5.10;;
809;SDS011;387;48.772;9.186;2024-03-17T15:49:06;5.80;;;4.10;;
809;SDS011;387;48.772;9.186;2024-03-17T15:51:32;9.80;;;4.10;;
809;SDS011;387;48.772;9.186;2024-03-17T15:53:58;7.80;;;3.90;;
809;SDS011;387;48.772;9.186;2024-03-17T15:56:23;5.33;;;3.83;;
809;SDS011;387;48.772;9.186;2024-03-17T15:58:49;7.67;;;4.67;;
809;SDS011;387;48.772;9.186;2024-03-17T16:01:15;7.83;;;4.80;;